Terminal Aerodrome Forecast
Issued by NWS

Home | Current Version | Previous Version | Text Only | Print | Product List | Glossary On
Versions: 1 2 3 4 5 6 7 8 9 10 11 12 13
000
FTUS43 KMQT 212337
TAFIWD
TAF
KIWD 212337Z 2200/2224 20011KT P6SM BKN200
     FM220700 21004KT P6SM SCT100
     FM221500 22006KT P6SM BKN060
     FM221800 26005KT P6SM BKN060
     FM222100 30007KT P6SM -RA BKN025
     FM222300 31007KT 6SM -RA BKN015=

USA.gov is the U.S. government's official web portal to all federal, state and local government web resources and services.